Time;durP1;ratioP1;P1;durP2;ratioP2;P2;SDS_P1;SDS_P2;PMS_P1;PMS_P2;Temp;Humidity;BMP_temperature;BMP_pressure;BME280_temperature;BME280_humidity;BME280_pressure;Samples;Min_cycle;Max_cycle;Signal;HPM_P1;HPM_P2
2022/08/04 00:01:36;;;;;;;4.43;3.40;;;22.00;99.90;;;;;;5105299;27;20242;-53
2022/08/04 00:04:08;;;;;;;7.40;3.70;;;22.00;99.90;;;;;;5105439;27;20192;-53
2022/08/04 00:06:52;;;;;;;7.88;3.50;;;22.00;99.90;;;;;;5091983;27;20221;-54
2022/08/04 00:09:29;;;;;;;5.47;3.40;;;22.00;99.90;;;;;;5106370;28;20678;-48
2022/08/04 00:12:00;;;;;;;4.72;3.25;;;22.00;99.90;;;;;;5104253;28;20276;-50
2022/08/04 00:14:33;;;;;;;5.00;3.65;;;21.90;99.90;;;;;;5103963;28;20657;-53
2022/08/04 00:17:05;;;;;;;5.85;3.72;;;21.90;99.90;;;;;;5122500;27;20803;-52
2022/08/04 00:19:39;;;;;;;6.05;4.15;;;21.80;99.90;;;;;;5112874;27;20580;-55
2022/08/04 00:22:09;;;;;;;7.05;4.50;;;21.80;99.90;;;;;;5109818;27;20197;-53
2022/08/04 00:24:37;;;;;;;6.25;3.20;;;21.70;99.90;;;;;;5105587;27;20568;-55
2022/08/04 00:27:04;;;;;;;5.63;4.03;;;21.70;99.90;;;;;;5105264;27;20224;-52
2022/08/04 00:29:32;;;;;;;4.55;3.50;;;21.70;99.90;;;;;;5103948;28;20600;-54
2022/08/04 00:32:01;;;;;;;5.15;3.67;;;21.70;99.90;;;;;;5104266;28;20185;-49
2022/08/04 00:34:31;;;;;;;8.27;3.92;;;21.60;99.90;;;;;;5117018;27;20208;-55
2022/08/04 00:36:58;;;;;;;9.80;3.70;;;21.60;99.90;;;;;;5111406;27;20953;-51
2022/08/04 00:39:27;;;;;;;5.05;3.72;;;21.60;99.90;;;;;;5112957;27;20208;-52
2022/08/04 00:42:28;;;;;;;5.85;3.63;;;21.50;99.90;;;;;;5103232;27;20192;-53
2022/08/04 00:45:11;;;;;;;4.65;3.85;;;21.50;99.90;;;;;;5101641;27;20196;-50
2022/08/04 00:47:56;;;;;;;5.07;4.10;;;21.50;99.90;;;;;;5115415;27;20208;-55
2022/08/04 00:50:33;;;;;;;9.02;4.03;;;21.40;99.90;;;;;;5107082;27;20204;-53
2022/08/04 00:53:08;;;;;;;5.28;4.20;;;21.40;99.90;;;;;;5108489;27;20319;-51
2022/08/04 00:55:50;;;;;;;5.45;4.43;;;21.30;99.90;;;;;;5110083;27;20232;-55
2022/08/04 00:58:37;;;;;;;6.88;4.40;;;21.30;99.90;;;;;;5125307;27;20219;-54
2022/08/04 01:01:06;;;;;;;6.97;4.22;;;21.20;99.90;;;;;;5124521;27;20204;-56
2022/08/04 01:03:50;;;;;;;8.32;4.72;;;21.10;99.90;;;;;;5121945;27;20204;-53
2022/08/04 01:06:29;;;;;;;6.65;4.13;;;21.20;99.90;;;;;;5103641;27;20212;-52
2022/08/04 01:09:08;;;;;;;7.45;4.65;;;21.20;99.90;;;;;;5112306;27;20249;-54
2022/08/04 01:11:47;;;;;;;9.13;4.40;;;21.10;99.90;;;;;;5111959;27;20208;-51
2022/08/04 01:14:32;;;;;;;6.43;4.43;;;21.10;99.90;;;;;;5115848;27;20212;-51
2022/08/04 01:17:11;;;;;;;7.78;4.10;;;21.10;99.90;;;;;;5112794;27;20937;-53
2022/08/04 01:20:06;;;;;;;7.90;4.55;;;21.10;99.90;;;;;;5121071;27;20298;-52
2022/08/04 01:22:57;;;;;;;8.93;4.30;;;21.10;99.90;;;;;;5098380;27;20281;-54
2022/08/04 01:25:49;;;;;;;6.28;4.03;;;21.10;99.90;;;;;;5115622;27;20207;-55
2022/08/04 01:28:29;;;;;;;8.93;4.22;;;21.10;99.90;;;;;;5091516;28;20762;-51
2022/08/04 01:31:06;;;;;;;6.10;4.10;;;21.10;99.90;;;;;;5103023;27;20940;-53
2022/08/04 01:33:36;;;;;;;7.03;4.15;;;21.00;99.90;;;;;;5115927;27;20200;-52
2022/08/04 01:36:05;;;;;;;9.00;4.13;;;20.90;99.90;;;;;;5103405;27;20207;-55
2022/08/04 01:38:35;;;;;;;7.47;4.05;;;20.90;99.90;;;;;;5107784;27;20708;-52
2022/08/04 01:41:06;;;;;;;4.03;3.65;;;20.90;99.90;;;;;;5103609;27;20201;-52
2022/08/04 01:43:35;;;;;;;7.55;4.60;;;20.80;99.90;;;;;;5101605;27;20212;-54
2022/08/04 01:46:04;;;;;;;4.55;3.95;;;20.80;99.90;;;;;;5103271;27;20716;-49
2022/08/04 01:48:32;;;;;;;6.88;3.50;;;20.80;99.90;;;;;;5102539;28;20220;-49
2022/08/04 01:51:03;;;;;;;6.70;3.20;;;20.80;99.90;;;;;;5103107;28;20305;-51
2022/08/04 01:53:33;;;;;;;6.10;4.13;;;20.80;99.90;;;;;;5098657;27;20205;-51
2022/08/04 01:56:02;;;;;;;5.70;4.10;;;20.70;99.90;;;;;;5105023;28;21066;-49
2022/08/04 01:58:30;;;;;;;8.18;4.10;;;20.70;99.90;;;;;;5101610;27;20307;-55
2022/08/04 02:01:01;;;;;;;6.93;4.13;;;20.80;99.90;;;;;;5102595;28;20200;-55
2022/08/04 02:03:30;;;;;;;5.22;3.90;;;20.70;99.90;;;;;;5102412;28;20230;-55
2022/08/04 02:06:08;;;;;;;6.43;3.15;;;20.70;99.90;;;;;;5111154;28;20217;-52
2022/08/04 02:08:48;;;;;;;6.47;3.72;;;20.70;99.90;;;;;;5092841;28;20228;-52
2022/08/04 02:11:20;;;;;;;7.03;3.40;;;20.70;99.90;;;;;;5112580;28;20204;-53
2022/08/04 02:13:57;;;;;;;8.70;3.70;;;20.60;99.90;;;;;;5102755;28;20200;-55
2022/08/04 02:16:30;;;;;;;6.17;3.60;;;20.60;99.90;;;;;;5123279;27;20196;-50
2022/08/04 02:19:04;;;;;;;5.97;3.33;;;20.50;99.90;;;;;;5121908;28;20208;-50
2022/08/04 02:21:34;;;;;;;5.03;3.20;;;20.50;99.90;;;;;;5121773;28;20207;-53
2022/08/04 02:24:06;;;;;;;7.73;3.67;;;20.60;99.90;;;;;;5107487;28;20238;-55
2022/08/04 02:26:35;;;;;;;4.33;3.57;;;20.50;99.90;;;;;;5105702;28;20208;-55
2022/08/04 02:29:11;;;;;;;3.80;3.40;;;20.50;99.90;;;;;;5109380;28;20261;-51
2022/08/04 02:31:41;;;;;;;4.87;3.30;;;20.50;99.90;;;;;;5100452;28;20246;-54
2022/08/04 02:34:16;;;;;;;7.97;3.50;;;20.50;99.90;;;;;;5103490;28;20254;-49
2022/08/04 02:36:43;;;;;;;10.73;3.77;;;20.50;99.90;;;;;;5110028;27;20717;-52
2022/08/04 02:39:12;;;;;;;5.43;3.13;;;20.40;99.90;;;;;;5106732;27;20269;-51
2022/08/04 02:41:40;;;;;;;6.00;3.40;;;20.40;99.90;;;;;;5110874;27;20189;-50
2022/08/04 02:44:09;;;;;;;5.10;3.53;;;20.40;99.90;;;;;;5103731;27;20292;-51
2022/08/04 02:46:38;;;;;;;5.07;3.13;;;20.40;99.90;;;;;;5104899;27;20301;-54
2022/08/04 02:49:06;;;;;;;5.57;3.10;;;20.30;99.90;;;;;;5107583;27;20217;-56
2022/08/04 02:51:37;;;;;;;4.90;2.97;;;20.30;99.90;;;;;;5105447;27;20619;-54
2022/08/04 02:54:05;;;;;;;3.90;3.33;;;20.30;99.90;;;;;;5107028;27;20219;-52
2022/08/04 02:56:34;;;;;;;3.07;2.50;;;20.30;99.90;;;;;;5102414;27;20212;-54
2022/08/04 02:59:04;;;;;;;3.10;2.80;;;20.30;99.90;;;;;;5109189;27;20626;-53
2022/08/04 03:01:31;;;;;;;7.53;3.17;;;20.30;99.90;;;;;;5104822;27;20201;-55
2022/08/04 03:04:21;;;;;;;5.03;2.93;;;20.20;99.90;;;;;;5105677;27;20189;-51
2022/08/04 03:07:37;;;;;;;4.40;2.90;;;20.20;99.90;;;;;;5110524;27;20205;-55
2022/08/04 03:10:29;;;;;;;5.10;3.03;;;20.10;99.90;;;;;;5104379;27;20201;-52
2022/08/04 03:13:35;;;;;;;5.00;2.67;;;20.00;99.90;;;;;;5107038;27;20206;-50
2022/08/04 03:16:30;;;;;;;5.73;2.83;;;20.00;99.90;;;;;;5112978;27;20209;-55
2022/08/04 03:19:28;;;;;;;3.40;3.10;;;19.90;99.90;;;;;;5125099;27;20204;-54
2022/08/04 03:22:26;;;;;;;4.10;3.30;;;19.90;99.90;;;;;;5112914;27;20208;-48
2022/08/04 03:25:38;;;;;;;8.53;3.33;;;19.80;99.90;;;;;;5094186;27;20476;-53
2022/08/04 03:28:36;;;;;;;4.20;2.83;;;19.80;99.90;;;;;;5025344;28;20219;-55
2022/08/04 03:31:42;;;;;;;7.13;3.50;;;19.80;99.90;;;;;;5103972;27;20209;-51
2022/08/04 03:34:35;;;;;;;4.87;3.00;;;19.80;99.90;;;;;;5106574;27;20234;-53
2022/08/04 03:37:24;;;;;;;5.27;3.70;;;19.80;99.90;;;;;;5119764;27;20211;-55
2022/08/04 03:40:26;;;;;;;6.30;3.50;;;19.80;99.90;;;;;;5103307;28;20208;-55
2022/08/04 03:43:30;;;;;;;5.10;3.80;;;19.80;99.90;;;;;;5095704;27;20254;-51
2022/08/04 03:46:24;;;;;;;4.77;3.70;;;19.80;99.90;;;;;;5111196;27;20189;-53
2022/08/04 03:49:28;;;;;;;8.47;3.50;;;19.80;99.90;;;;;;5110290;27;20220;-53
2022/08/04 03:55:27;;;;;;;7.67;3.70;;;19.80;99.90;;;;;;5103209;27;20196;-55
2022/08/04 03:58:21;;;;;;;6.20;3.93;;;19.80;99.90;;;;;;5105780;27;21129;-52
2022/08/04 04:01:00;;;;;;;3.73;3.03;;;19.80;99.90;;;;;;5104068;27;20736;-55
2022/08/04 04:03:48;;;;;;;5.13;3.43;;;19.80;99.90;;;;;;5106631;27;20196;-56
2022/08/04 04:06:45;;;;;;;7.43;3.93;;;19.80;99.90;;;;;;5103830;27;20201;-54
2022/08/04 04:09:45;;;;;;;5.97;3.23;;;19.80;99.90;;;;;;5113672;27;20219;-53
2022/08/04 04:12:35;;;;;;;5.43;3.90;;;19.80;99.90;;;;;;5105480;27;20204;-55
2022/08/04 04:15:12;;;;;;;4.23;3.30;;;19.70;99.90;;;;;;5096866;27;20232;-50
2022/08/04 04:17:55;;;;;;;6.40;3.00;;;19.70;99.90;;;;;;5108295;27;20944;-53
2022/08/04 04:20:52;;;;;;;4.80;3.20;;;19.70;99.90;;;;;;5105542;27;20211;-51
2022/08/04 04:23:41;;;;;;;4.40;3.00;;;19.70;99.90;;;;;;5100477;27;20197;-55
2022/08/04 04:26:32;;;;;;;3.77;3.07;;;19.70;99.90;;;;;;5102883;27;20213;-53
2022/08/04 04:29:18;;;;;;;6.20;3.40;;;19.70;99.90;;;;;;5119228;27;20229;-51
2022/08/04 04:32:13;;;;;;;4.43;3.13;;;19.70;99.90;;;;;;5106729;27;20193;-55
2022/08/04 04:34:50;;;;;;;4.80;3.20;;;19.80;99.90;;;;;;5114424;27;20222;-51
2022/08/04 04:37:36;;;;;;;5.40;3.40;;;19.80;99.90;;;;;;5100614;27;20197;-51
2022/08/04 04:40:18;;;;;;;4.30;3.10;;;19.90;99.90;;;;;;5113601;27;20549;-55
2022/08/04 04:43:11;;;;;;;4.27;3.07;;;19.90;99.90;;;;;;5104575;28;20216;-54
2022/08/04 04:45:46;;;;;;;5.20;3.10;;;19.90;99.90;;;;;;5094849;27;20213;-50
2022/08/04 04:48:24;;;;;;;5.40;2.70;;;19.90;99.90;;;;;;5108265;27;20219;-51
2022/08/04 04:51:04;;;;;;;4.80;3.23;;;20.00;99.90;;;;;;5106047;27;20705;-51
2022/08/04 04:53:42;;;;;;;4.60;2.77;;;20.00;99.90;;;;;;5101802;27;20207;-51
2022/08/04 04:56:16;;;;;;;3.43;3.13;;;20.00;99.90;;;;;;5101640;27;20190;-54
2022/08/04 04:58:43;;;;;;;8.40;3.30;;;20.00;99.90;;;;;;5112262;27;20677;-54
2022/08/04 05:01:39;;;;;;;5.40;2.73;;;20.10;99.90;;;;;;5098959;27;20193;-51
2022/08/04 05:04:29;;;;;;;3.23;2.93;;;20.10;99.90;;;;;;5107553;27;20910;-51
2022/08/04 05:07:18;;;;;;;4.47;3.00;;;20.20;99.90;;;;;;5103175;27;20217;-54
2022/08/04 05:10:00;;;;;;;3.33;3.00;;;20.20;99.90;;;;;;5108269;27;20204;-53
2022/08/04 05:12:41;;;;;;;3.40;2.73;;;20.30;99.90;;;;;;5116878;27;20196;-53
2022/08/04 05:15:11;;;;;;;6.00;3.07;;;20.30;99.90;;;;;;5110349;27;20541;-60
2022/08/04 05:17:41;;;;;;;3.13;2.80;;;20.40;99.90;;;;;;5099410;27;20364;-60
2022/08/04 05:20:12;;;;;;;5.97;2.90;;;20.40;99.90;;;;;;5108449;27;20205;-58
2022/08/04 05:22:45;;;;;;;5.20;2.77;;;20.50;99.90;;;;;;5097841;27;20933;-58
2022/08/04 05:25:19;;;;;;;4.43;2.57;;;20.60;99.90;;;;;;5112378;27;20201;-58
2022/08/04 05:27:51;;;;;;;4.37;2.83;;;20.60;99.90;;;;;;5107744;27;20915;-58
2022/08/04 05:30:20;;;;;;;4.37;2.43;;;20.70;99.90;;;;;;5104573;27;20655;-58
2022/08/04 05:32:54;;;;;;;3.47;2.93;;;20.80;99.90;;;;;;5099154;27;20202;-55
2022/08/04 05:35:28;;;;;;;5.03;2.60;;;20.90;99.90;;;;;;5114438;27;20196;-53
2022/08/04 05:37:57;;;;;;;3.77;2.70;;;21.00;99.90;;;;;;5104042;27;20224;-54
2022/08/04 05:40:27;;;;;;;3.97;2.78;;;21.10;99.90;;;;;;5105563;27;20212;-53
2022/08/04 05:42:54;;;;;;;6.37;2.70;;;21.20;99.90;;;;;;5107204;27;20207;-52
2022/08/04 05:45:22;;;;;;;3.90;2.77;;;21.30;99.90;;;;;;5110946;27;20748;-53
2022/08/04 05:47:51;;;;;;;3.53;2.20;;;21.40;99.90;;;;;;5101441;27;20347;-54
2022/08/04 05:50:18;;;;;;;5.37;2.60;;;21.50;99.90;;;;;;5110268;27;20202;-55
2022/08/04 05:52:46;;;;;;;4.93;2.72;;;21.70;99.90;;;;;;5104634;27;20193;-55
2022/08/04 05:55:13;;;;;;;4.10;2.10;;;21.70;99.90;;;;;;5112068;27;20664;-51
2022/08/04 05:57:43;;;;;;;3.03;2.70;;;21.90;99.90;;;;;;5108916;27;20215;-53
2022/08/04 06:00:11;;;;;;;3.15;2.70;;;22.00;99.90;;;;;;5102109;28;20669;-55
2022/08/04 06:02:39;;;;;;;3.50;2.78;;;22.10;99.90;;;;;;5099888;28;20285;-55
2022/08/04 06:05:08;;;;;;;3.22;2.28;;;22.20;99.90;;;;;;5102462;27;20572;-52
2022/08/04 06:07:34;;;;;;;6.78;2.20;;;22.30;99.90;;;;;;5101764;27;20224;-55
2022/08/04 06:10:01;;;;;;;5.60;2.70;;;22.40;99.90;;;;;;5102397;27;20201;-52
2022/08/04 06:12:32;;;;;;;4.20;2.42;;;22.50;99.90;;;;;;5102620;28;20802;-54
2022/08/04 06:15:01;;;;;;;5.22;2.40;;;22.70;99.90;;;;;;5106019;28;20283;-53
2022/08/04 06:17:33;;;;;;;3.13;2.17;;;22.70;99.90;;;;;;5111666;28;20629;-55
2022/08/04 06:20:02;;;;;;;3.55;2.47;;;22.80;99.90;;;;;;5102238;27;20200;-51
2022/08/04 06:22:32;;;;;;;6.03;2.47;;;22.90;99.90;;;;;;5105115;28;20189;-52
2022/08/04 06:25:02;;;;;;;3.95;2.25;;;23.00;99.90;;;;;;5107242;28;20278;-54
2022/08/04 06:27:30;;;;;;;6.72;2.47;;;23.10;99.90;;;;;;5109627;28;20342;-54
2022/08/04 06:30:00;;;;;;;5.90;2.08;;;23.20;99.90;;;;;;5123729;28;20265;-55
2022/08/04 06:32:35;;;;;;;3.55;2.10;;;23.30;99.90;;;;;;5120017;27;20207;-54
2022/08/04 06:35:05;;;;;;;7.45;2.45;;;23.40;99.90;;;;;;5106408;28;20212;-55
2022/08/04 06:37:33;;;;;;;5.93;2.15;;;23.40;99.90;;;;;;5110435;28;20216;-56
2022/08/04 06:40:02;;;;;;;2.67;2.22;;;23.60;99.90;;;;;;5104364;28;20205;-53
2022/08/04 06:42:30;;;;;;;2.80;2.30;;;23.60;99.90;;;;;;5119201;28;20231;-55
2022/08/04 06:45:01;;;;;;;8.23;2.75;;;23.70;99.90;;;;;;5123179;28;20215;-53
2022/08/04 06:47:30;;;;;;;7.47;2.05;;;23.80;99.90;;;;;;5119843;27;20824;-55
2022/08/04 06:49:57;;;;;;;5.78;2.25;;;23.90;99.90;;;;;;5123731;28;20204;-54
2022/08/04 06:52:24;;;;;;;5.07;2.40;;;23.90;99.90;;;;;;5096481;27;20670;-55
2022/08/04 06:54:54;;;;;;;6.05;2.30;;;24.00;99.90;;;;;;5101278;28;20207;-55
2022/08/04 06:57:24;;;;;;;3.28;1.80;;;24.20;99.90;;;;;;5102985;27;20213;-53
2022/08/04 06:59:55;;;;;;;4.32;2.22;;;24.30;99.90;;;;;;5103291;28;20276;-53
2022/08/04 07:02:27;;;;;;;4.25;2.28;;;24.40;99.90;;;;;;5101167;28;20232;-53
2022/08/04 07:04:55;;;;;;;5.45;2.47;;;24.50;99.90;;;;;;5103333;28;20608;-53
2022/08/04 07:07:24;;;;;;;4.88;2.65;;;24.50;99.90;;;;;;5094973;28;20221;-53
2022/08/04 07:09:52;;;;;;;4.90;2.53;;;24.60;99.90;;;;;;5111656;28;20563;-54
2022/08/04 07:12:20;;;;;;;5.50;2.13;;;24.70;99.90;;;;;;5112936;28;20257;-51
2022/08/04 07:14:48;;;;;;;4.35;2.28;;;24.80;99.90;;;;;;5101703;28;20893;-55
2022/08/04 07:17:16;;;;;;;5.05;2.70;;;24.90;99.90;;;;;;5101411;28;20208;-53
2022/08/04 07:19:45;;;;;;;5.57;2.20;;;24.90;99.90;;;;;;5103412;28;20272;-52
2022/08/04 07:22:12;;;;;;;5.95;2.03;;;25.00;99.90;;;;;;5096342;27;20205;-53
2022/08/04 07:24:42;;;;;;;4.50;2.00;;;25.20;99.90;;;;;;5106487;27;20189;-52
2022/08/04 07:27:09;;;;;;;3.28;2.22;;;25.30;99.90;;;;;;5107195;27;20622;-51
2022/08/04 07:29:37;;;;;;;5.32;2.30;;;25.50;99.90;;;;;;5103409;27;20945;-53
2022/08/04 07:32:05;;;;;;;7.85;2.00;;;25.50;99.90;;;;;;5105967;27;20288;-54
2022/08/04 07:34:32;;;;;;;2.65;2.30;;;25.60;99.90;;;;;;5104511;27;20184;-52
2022/08/04 07:37:01;;;;;;;6.25;2.13;;;25.70;99.90;;;;;;5106457;27;20201;-54
2022/08/04 07:39:30;;;;;;;2.50;2.25;;;25.80;99.90;;;;;;5106259;27;20189;-54
2022/08/04 07:41:59;;;;;;;5.82;2.38;;;26.00;99.90;;;;;;5111012;27;20293;-52
2022/08/04 07:44:26;;;;;;;3.80;1.80;;;26.10;99.90;;;;;;5103138;27;20197;-55
2022/08/04 07:46:54;;;;;;;5.97;2.50;;;26.20;99.90;;;;;;5106593;27;20201;-53
2022/08/04 07:49:21;;;;;;;4.22;2.00;;;26.30;99.90;;;;;;5104161;27;20217;-52
2022/08/04 07:51:50;;;;;;;6.85;2.60;;;26.50;99.90;;;;;;5105493;27;20201;-52
2022/08/04 07:54:18;;;;;;;4.32;2.30;;;26.70;99.90;;;;;;5102308;27;20208;-52
2022/08/04 07:56:47;;;;;;;6.78;2.33;;;26.80;99.90;;;;;;5101993;27;20205;-52
2022/08/04 07:59:15;;;;;;;5.07;2.38;;;26.90;99.90;;;;;;5105658;28;20575;-53
2022/08/04 08:01:43;;;;;;;7.10;2.42;;;27.00;99.90;;;;;;5104006;27;20254;-55
2022/08/04 08:04:11;;;;;;;5.95;2.00;;;27.10;99.90;;;;;;5105673;27;20610;-55
2022/08/04 08:06:39;;;;;;;6.38;2.05;;;27.30;99.90;;;;;;5109582;27;20181;-54
2022/08/04 08:09:10;;;;;;;8.35;2.33;;;27.40;99.90;;;;;;5102804;27;20291;-55
2022/08/04 08:11:39;;;;;;;6.43;2.22;;;27.60;99.90;;;;;;5110651;27;20215;-55
2022/08/04 08:14:07;;;;;;;6.30;2.50;;;27.60;99.90;;;;;;5122108;27;20204;-55
2022/08/04 08:16:35;;;;;;;4.07;1.80;;;27.70;99.90;;;;;;5121636;27;20184;-55
2022/08/04 08:19:02;;;;;;;3.20;2.25;;;27.70;99.90;;;;;;5119251;27;20621;-56
2022/08/04 08:21:29;;;;;;;4.53;1.95;;;27.80;99.90;;;;;;5116607;27;20276;-52
2022/08/04 08:23:56;;;;;;;5.07;2.15;;;27.90;99.90;;;;;;5096962;27;20313;-56
2022/08/04 08:26:23;;;;;;;5.07;2.15;;;28.00;99.90;;;;;;5113111;27;20566;-52
2022/08/04 08:28:53;;;;;;;4.60;2.22;;;28.20;99.90;;;;;;5105266;27;20224;-55
2022/08/04 08:31:20;;;;;;;3.22;2.33;;;28.30;99.90;;;;;;5103562;28;20197;-53
2022/08/04 08:33:49;;;;;;;2.95;1.85;;;28.50;99.70;;;;;;5103595;27;20189;-53
2022/08/04 08:36:22;;;;;;;6.28;2.10;;;28.60;99.40;;;;;;5105231;27;20203;-52
2022/08/04 08:38:55;;;;;;;9.15;2.35;;;28.80;98.40;;;;;;5116706;27;20300;-54
2022/08/04 08:41:58;;;;;;;2.78;2.25;;;28.90;98.70;;;;;;5095814;27;20569;-56
2022/08/04 08:44:52;;;;;;;5.65;2.05;;;28.90;97.80;;;;;;5101824;27;20681;-55
2022/08/04 08:47:32;;;;;;;2.80;1.60;;;28.90;97.40;;;;;;5106960;27;20220;-55
2022/08/04 08:50:18;;;;;;;4.57;2.17;;;28.90;97.60;;;;;;5125396;27;20189;-54
2022/08/04 08:53:09;;;;;;;3.55;1.77;;;28.90;97.40;;;;;;5101752;27;20216;-54
2022/08/04 08:55:45;;;;;;;4.90;1.88;;;28.90;96.80;;;;;;5091784;27;20201;-53
2022/08/04 08:58:35;;;;;;;8.05;2.42;;;28.90;97.00;;;;;;5109159;27;20228;-54
2022/08/04 09:01:19;;;;;;;5.45;2.13;;;29.00;96.80;;;;;;5122769;27;20194;-48
2022/08/04 09:04:39;;;;;;;3.20;1.83;;;29.10;96.20;;;;;;5101175;27;20582;-52
2022/08/04 09:07:20;;;;;;;2.38;1.77;;;29.30;96.20;;;;;;5108239;27;20192;-51
2022/08/04 09:10:05;;;;;;;3.38;1.95;;;29.50;95.30;;;;;;5106518;27;20212;-54
2022/08/04 09:12:39;;;;;;;7.35;2.15;;;29.70;94.80;;;;;;5108748;27;20200;-53
2022/08/04 09:15:12;;;;;;;4.70;2.33;;;29.90;94.70;;;;;;5097861;27;20208;-54
2022/08/04 09:17:48;;;;;;;7.05;1.77;;;30.00;93.70;;;;;;5111794;27;20225;-54
2022/08/04 09:20:22;;;;;;;2.75;2.10;;;30.00;92.50;;;;;;5112668;27;20298;-54
2022/08/04 09:22:51;;;;;;;5.97;1.83;;;30.00;92.00;;;;;;5108644;27;20227;-52
2022/08/04 09:25:24;;;;;;;3.90;1.92;;;30.10;91.70;;;;;;5098738;27;20204;-53
2022/08/04 09:27:53;;;;;;;4.60;1.90;;;30.20;91.20;;;;;;5102468;27;20224;-51
2022/08/04 09:30:23;;;;;;;2.30;2.10;;;30.30;90.90;;;;;;5096684;27;20208;-54
2022/08/04 09:33:03;;;;;;;4.28;1.83;;;30.40;90.40;;;;;;5121654;27;20196;-53
2022/08/04 09:35:40;;;;;;;2.08;1.98;;;30.50;88.30;;;;;;5105036;27;20242;-55
2022/08/04 09:38:15;;;;;;;2.70;1.80;;;30.60;87.80;;;;;;5113583;27;20618;-55
2022/08/04 09:40:50;;;;;;;2.70;2.08;;;30.70;87.40;;;;;;5108364;27;20302;-54
2022/08/04 09:43:28;;;;;;;4.63;2.47;;;30.80;85.40;;;;;;5096941;27;20204;-54
2022/08/04 09:46:00;;;;;;;3.05;1.80;;;31.00;84.90;;;;;;5110208;27;20211;-50
2022/08/04 09:48:36;;;;;;;4.05;1.90;;;31.20;82.30;;;;;;5108319;27;20236;-53
2022/08/04 09:51:14;;;;;;;2.58;1.98;;;31.30;81.10;;;;;;5110049;27;20188;-51
2022/08/04 09:53:49;;;;;;;3.05;2.08;;;31.40;79.00;;;;;;5110432;27;20210;-54
2022/08/04 09:56:26;;;;;;;2.20;2.00;;;31.50;77.00;;;;;;5108465;27;20652;-53
2022/08/04 09:59:05;;;;;;;3.33;2.00;;;31.60;76.00;;;;;;5097826;27;20225;-51
2022/08/04 10:01:34;;;;;;;4.18;1.85;;;31.70;73.60;;;;;;5107327;27;20825;-51
2022/08/04 10:04:08;;;;;;;3.28;2.00;;;31.80;72.70;;;;;;5116912;27;20189;-51
2022/08/04 10:07:04;;;;;;;2.80;1.70;;;31.90;72.60;;;;;;5110254;27;20993;-53
2022/08/04 10:09:43;;;;;;;2.70;1.98;;;32.00;70.80;;;;;;5113269;28;20221;-54
2022/08/04 10:12:27;;;;;;;2.40;2.00;;;32.10;67.50;;;;;;5105396;28;20196;-52
2022/08/04 10:15:01;;;;;;;2.08;1.88;;;32.10;64.50;;;;;;5101796;28;20215;-53
2022/08/04 10:18:03;;;;;;;3.90;1.90;;;32.10;65.20;;;;;;5101391;28;21044;-53
2022/08/04 10:20:58;;;;;;;2.85;2.22;;;32.10;62.10;;;;;;5109632;28;20208;-53
2022/08/04 10:23:46;;;;;;;2.47;2.03;;;32.10;65.10;;;;;;5109005;28;20189;-50
2022/08/04 10:26:25;;;;;;;8.20;2.28;;;32.00;64.60;;;;;;5101445;28;20206;-54
2022/08/04 10:28:57;;;;;;;3.30;2.00;;;31.90;64.70;;;;;;5096654;28;20304;-50
2022/08/04 10:31:28;;;;;;;3.22;2.00;;;31.90;64.80;;;;;;5107036;28;20208;-53
2022/08/04 10:34:01;;;;;;;3.45;2.45;;;31.80;65.30;;;;;;5096673;28;20207;-53
2022/08/04 10:36:40;;;;;;;2.50;2.30;;;31.90;65.00;;;;;;5107211;28;20208;-49
2022/08/04 10:39:12;;;;;;;1.98;1.80;;;31.90;64.20;;;;;;5114356;28;20219;-55
2022/08/04 10:41:49;;;;;;;3.60;2.25;;;32.00;64.70;;;;;;5109416;27;20202;-51
2022/08/04 10:44:27;;;;;;;4.47;2.55;;;32.10;64.20;;;;;;5109278;28;20331;-48
2022/08/04 10:46:58;;;;;;;4.68;2.60;;;32.00;64.60;;;;;;5088755;28;20208;-54
2022/08/04 10:49:34;;;;;;;2.58;2.35;;;32.10;65.50;;;;;;5102358;28;20686;-53
2022/08/04 10:52:08;;;;;;;3.28;2.35;;;32.20;64.60;;;;;;5105333;28;20188;-54
2022/08/04 10:54:47;;;;;;;10.13;2.80;;;32.40;64.30;;;;;;5115925;28;20192;-52
2022/08/04 10:57:20;;;;;;;5.53;3.00;;;32.50;64.00;;;;;;5111456;27;20197;-51
2022/08/04 10:59:53;;;;;;;6.28;2.38;;;32.60;63.60;;;;;;5105033;27;20200;-52
2022/08/04 11:02:34;;;;;;;3.20;2.40;;;32.70;63.80;;;;;;5101034;27;20200;-52
2022/08/04 11:05:10;;;;;;;4.10;2.38;;;32.80;63.70;;;;;;5096410;27;20334;-52
2022/08/04 11:07:41;;;;;;;3.90;2.40;;;32.90;63.50;;;;;;5111496;27;20901;-52
2022/08/04 11:10:09;;;;;;;6.18;2.78;;;33.10;62.70;;;;;;5120154;27;20922;-51
2022/08/04 11:12:40;;;;;;;3.28;2.15;;;33.10;60.50;;;;;;5110505;27;20205;-53
2022/08/04 11:15:12;;;;;;;2.50;2.30;;;33.20;60.70;;;;;;5110909;27;20191;-54
2022/08/04 11:17:43;;;;;;;5.30;2.33;;;33.30;60.10;;;;;;5100423;27;20225;-54
2022/08/04 11:20:14;;;;;;;2.85;2.65;;;33.40;58.80;;;;;;5106479;27;20201;-52
2022/08/04 11:22:50;;;;;;;7.50;2.50;;;33.50;58.00;;;;;;5121335;27;20639;-54
2022/08/04 11:25:21;;;;;;;7.43;2.40;;;33.60;57.60;;;;;;5108879;27;20211;-51
2022/08/04 11:28:00;;;;;;;3.92;2.20;;;33.70;57.70;;;;;;5107795;27;20712;-54
2022/08/04 11:30:34;;;;;;;4.25;2.53;;;33.80;56.50;;;;;;5108993;27;20233;-51
2022/08/04 11:33:09;;;;;;;2.50;2.30;;;34.00;54.90;;;;;;5099913;27;22470;-53
2022/08/04 11:35:45;;;;;;;2.60;1.85;;;34.00;54.00;;;;;;5107595;27;20195;-55
2022/08/04 11:38:22;;;;;;;4.72;2.30;;;34.00;54.20;;;;;;5110270;27;20896;-52
2022/08/04 11:40:56;;;;;;;6.00;2.45;;;34.20;54.70;;;;;;5105581;27;20225;-53
2022/08/04 11:43:29;;;;;;;2.30;2.20;;;34.20;53.90;;;;;;5111430;27;20197;-55
2022/08/04 11:46:01;;;;;;;2.15;2.05;;;34.30;53.10;;;;;;5109819;27;20195;-52
2022/08/04 11:48:34;;;;;;;4.15;2.40;;;34.30;53.30;;;;;;5113971;27;20300;-54
2022/08/04 11:51:04;;;;;;;3.03;2.10;;;34.30;53.00;;;;;;5096727;27;20201;-54
2022/08/04 11:53:34;;;;;;;9.02;2.67;;;34.20;53.10;;;;;;5117723;27;20204;-54
2022/08/04 11:56:04;;;;;;;2.65;2.45;;;34.10;52.80;;;;;;5102665;27;20204;-54
2022/08/04 11:58:31;;;;;;;3.15;2.67;;;34.20;52.40;;;;;;5114827;27;20720;-49
2022/08/04 12:01:08;;;;;;;4.53;2.45;;;34.10;52.50;;;;;;5110950;27;21015;-53
2022/08/04 12:03:45;;;;;;;2.20;2.10;;;34.00;52.10;;;;;;5109398;27;20197;-55
2022/08/04 12:06:19;;;;;;;4.97;2.15;;;34.00;52.90;;;;;;5105150;27;20200;-50
2022/08/04 12:09:07;;;;;;;3.42;2.33;;;34.00;51.90;;;;;;5104444;27;20582;-55
2022/08/04 12:11:52;;;;;;;3.00;2.10;;;33.90;49.50;;;;;;5110370;27;20280;-53
2022/08/04 12:14:39;;;;;;;3.72;2.45;;;33.70;50.50;;;;;;5115435;27;20223;-55
2022/08/04 12:17:07;;;;;;;4.72;2.33;;;33.60;51.70;;;;;;5102118;28;20189;-54
2022/08/04 12:19:41;;;;;;;4.68;2.05;;;33.50;51.00;;;;;;5114399;27;20653;-55
2022/08/04 12:22:14;;;;;;;4.40;2.15;;;33.60;51.10;;;;;;5091106;27;20209;-51
2022/08/04 12:24:45;;;;;;;6.53;2.50;;;33.60;51.30;;;;;;5111961;27;20197;-54
2022/08/04 12:27:16;;;;;;;1.98;1.88;;;33.70;51.80;;;;;;5109893;27;20211;-55
2022/08/04 12:29:45;;;;;;;2.80;1.80;;;34.00;51.80;;;;;;5105314;27;20197;-51
2022/08/04 12:32:25;;;;;;;1.90;1.70;;;34.30;51.00;;;;;;5112414;27;20201;-55
2022/08/04 12:35:03;;;;;;;1.67;1.58;;;34.50;49.00;;;;;;5107825;27;20863;-55
2022/08/04 12:37:43;;;;;;;1.88;1.77;;;34.30;48.60;;;;;;5100750;27;20217;-53
2022/08/04 12:40:16;;;;;;;1.48;1.48;;;34.10;48.20;;;;;;5108826;27;20196;-55
2022/08/04 12:42:52;;;;;;;1.60;1.50;;;34.00;48.00;;;;;;5103214;27;20661;-54
2022/08/04 12:45:21;;;;;;;2.15;1.80;;;33.90;48.00;;;;;;5105154;27;20496;-54
2022/08/04 12:47:50;;;;;;;1.95;1.85;;;34.10;47.60;;;;;;5102381;27;20274;-54
2022/08/04 12:50:18;;;;;;;2.53;1.60;;;34.50;47.40;;;;;;5107232;27;20208;-55
2022/08/04 12:52:49;;;;;;;1.77;1.67;;;34.70;46.20;;;;;;5096837;27;20216;-55
2022/08/04 12:55:20;;;;;;;2.65;2.00;;;35.00;47.20;;;;;;5106168;27;20185;-53
2022/08/04 12:57:49;;;;;;;1.92;1.83;;;35.30;46.80;;;;;;5115202;27;20213;-51
2022/08/04 13:00:25;;;;;;;2.10;2.00;;;35.50;45.40;;;;;;5104404;27;20838;-52
2022/08/04 13:02:52;;;;;;;1.90;1.70;;;35.70;45.90;;;;;;5107692;27;20200;-55
2022/08/04 13:05:21;;;;;;;2.80;1.67;;;36.00;44.80;;;;;;5112257;27;20187;-53
2022/08/04 13:07:50;;;;;;;1.83;1.73;;;36.10;44.20;;;;;;5101036;27;20231;-54
2022/08/04 13:10:22;;;;;;;3.78;1.92;;;36.30;43.70;;;;;;5096010;27;20220;-54
2022/08/04 13:12:55;;;;;;;7.10;2.30;;;36.40;43.50;;;;;;5109736;27;20201;-49
2022/08/04 13:15:24;;;;;;;3.42;2.10;;;36.50;43.40;;;;;;5101960;27;20304;-55
2022/08/04 13:17:56;;;;;;;3.17;1.92;;;36.70;42.80;;;;;;5107039;27;20238;-53
2022/08/04 13:20:29;;;;;;;2.92;2.50;;;36.60;42.70;;;;;;5114789;27;20207;-54
2022/08/04 13:23:07;;;;;;;2.42;2.20;;;36.30;42.50;;;;;;5096188;27;20201;-54
2022/08/04 13:25:40;;;;;;;1.95;1.77;;;35.80;42.90;;;;;;5108076;27;20203;-54
2022/08/04 13:28:14;;;;;;;2.22;1.98;;;35.80;43.30;;;;;;5108951;27;20725;-54
2022/08/04 13:30:45;;;;;;;2.00;1.90;;;36.00;43.90;;;;;;5101958;27;20208;-51
2022/08/04 13:33:13;;;;;;;2.65;2.33;;;36.40;44.30;;;;;;5105509;27;20214;-53
2022/08/04 13:35:44;;;;;;;2.03;1.90;;;36.50;43.20;;;;;;5114501;27;20955;-52